Time;durP1;ratioP1;P1;durP2;ratioP2;P2;SDS_P1;SDS_P2;PMS_P1;PMS_P2;Temp;Humidity;BMP_temperature;BMP_pressure;BME280_temperature;BME280_humidity;BME280_pressure;Samples;Min_cycle;Max_cycle;Signal;HPM_P1;HPM_P2
2022/07/01 00:01:31;;;;;;;2.93;1.20;;;;;;;15.30;100.00;98155.94;5079579;28;20671;-69
2022/07/01 00:03:57;;;;;;;2.87;1.27;;;;;;;15.28;100.00;98159.94;5079793;28;20228;-69
2022/07/01 00:06:23;;;;;;;1.77;1.00;;;;;;;15.21;100.00;98170.81;5079847;28;20299;-69
2022/07/01 00:08:50;;;;;;;3.07;1.30;;;;;;;15.22;100.00;98169.75;5079472;28;20314;-68
2022/07/01 00:11:17;;;;;;;3.07;1.10;;;;;;;15.20;100.00;98177.19;5079762;28;20208;-68
2022/07/01 00:13:43;;;;;;;2.50;0.70;;;;;;;15.11;100.00;98181.34;5079647;28;20204;-69
2022/07/01 00:16:09;;;;;;;3.60;1.40;;;;;;;15.13;100.00;98179.25;5079754;28;20627;-68
2022/07/01 00:18:36;;;;;;;1.17;1.07;;;;;;;15.03;100.00;98181.78;5079585;28;20236;-68
2022/07/01 00:21:03;;;;;;;0.83;0.70;;;;;;;15.01;100.00;98178.50;5079735;28;20295;-68
2022/07/01 00:23:30;;;;;;;1.67;1.00;;;;;;;15.01;100.00;98178.50;5079631;28;20299;-69
2022/07/01 00:25:57;;;;;;;2.43;1.00;;;;;;;14.99;100.00;98186.00;5079336;28;20209;-68
2022/07/01 00:28:24;;;;;;;2.87;1.10;;;;;;;14.99;100.00;98188.66;5079607;28;20223;-69
2022/07/01 00:30:50;;;;;;;1.90;1.00;;;;;;;15.04;100.00;98187.94;5079642;28;20212;-69
2022/07/01 00:33:17;;;;;;;2.37;0.83;;;;;;;15.09;100.00;98191.50;5079615;28;20213;-69
2022/07/01 00:35:43;;;;;;;1.50;0.80;;;;;;;15.00;100.00;98201.00;5079523;28;20283;-68
2022/07/01 00:38:10;;;;;;;3.07;0.90;;;;;;;14.94;100.00;98198.47;5079076;28;20706;-69
2022/07/01 00:40:36;;;;;;;1.40;0.70;;;;;;;14.95;100.00;98194.75;5079525;28;20223;-69
2022/07/01 00:43:04;;;;;;;1.13;1.00;;;;;;;14.91;100.00;98186.38;5079168;28;20766;-69
2022/07/01 00:45:31;;;;;;;1.13;0.80;;;;;;;14.89;100.00;98182.34;5073635;28;20234;-68
2022/07/01 00:47:58;;;;;;;1.90;0.80;;;;;;;14.74;100.00;98171.38;5075920;28;20670;-69
2022/07/01 00:50:24;;;;;;;1.50;0.70;;;;;;;14.83;100.00;98162.69;5075974;28;20670;-68
2022/07/01 00:52:51;;;;;;;1.47;1.00;;;;;;;14.67;100.00;98168.03;5076237;28;20303;-69
2022/07/01 00:55:17;;;;;;;0.73;0.60;;;;;;;14.51;100.00;98158.94;5075760;28;20205;-68
2022/07/01 00:57:44;;;;;;;1.07;0.70;;;;;;;14.57;100.00;98159.84;5076081;28;20230;-69
2022/07/01 01:00:14;;;;;;;1.23;0.70;;;;;;;14.45;100.00;98159.91;5075776;28;20212;-68
2022/07/01 01:02:41;;;;;;;0.70;0.70;;;;;;;14.48;100.00;98156.72;5076065;28;20202;-69
2022/07/01 01:05:11;;;;;;;1.53;0.70;;;;;;;14.52;100.00;98157.88;5076584;28;20233;-69
2022/07/01 01:07:37;;;;;;;0.93;0.60;;;;;;;14.48;100.00;98148.72;5074754;28;20204;-69
2022/07/01 01:10:04;;;;;;;1.10;1.00;;;;;;;14.59;100.00;98163.06;5075807;28;20238;-69
2022/07/01 01:12:31;;;;;;;2.10;0.87;;;;;;;14.57;100.00;98152.63;5075834;28;20211;-69
2022/07/01 01:14:58;;;;;;;0.93;0.63;;;;;;;14.49;100.00;98153.03;5076419;28;20201;-69
2022/07/01 01:17:25;;;;;;;2.33;0.80;;;;;;;14.45;100.00;98149.22;5075803;28;20294;-69
2022/07/01 01:19:53;;;;;;;0.73;0.70;;;;;;;14.43;100.00;98140.59;5075541;28;20328;-69
2022/07/01 01:22:20;;;;;;;1.30;1.10;;;;;;;14.43;100.00;98143.28;5075599;28;20250;-69
2022/07/01 01:24:48;;;;;;;0.90;0.70;;;;;;;14.41;100.00;98139.22;5075553;28;20231;-69
2022/07/01 01:27:15;;;;;;;1.47;0.80;;;;;;;14.36;100.00;98142.63;5075592;28;20214;-69
2022/07/01 01:29:43;;;;;;;1.90;0.90;;;;;;;14.36;100.00;98139.13;5075164;28;20234;-69
2022/07/01 01:32:09;;;;;;;1.60;0.70;;;;;;;14.39;100.00;98144.00;5075469;28;20299;-69
2022/07/01 01:34:40;;;;;;;1.17;0.77;;;;;;;14.39;100.00;98149.34;5075150;28;20209;-69
2022/07/01 01:37:08;;;;;;;1.20;0.73;;;;;;;14.40;100.00;98133.06;5075074;28;20699;-69
2022/07/01 01:39:36;;;;;;;2.97;0.63;;;;;;;14.35;100.00;98129.50;5075300;28;20320;-69
2022/07/01 01:42:06;;;;;;;1.57;0.80;;;;;;;14.33;100.00;98119.03;5074990;28;20218;-69
2022/07/01 01:44:34;;;;;;;2.23;0.87;;;;;;;14.37;100.00;98122.03;5075450;28;20229;-69
2022/07/01 01:47:01;;;;;;;0.67;0.67;;;;;;;14.30;100.00;98116.81;5074876;28;20641;-69
2022/07/01 01:49:27;;;;;;;3.90;1.07;;;;;;;14.31;100.00;98110.44;5075080;28;20235;-69
2022/07/01 01:51:54;;;;;;;1.37;1.00;;;;;;;14.46;100.00;98104.53;5074824;28;20217;-69
2022/07/01 01:54:20;;;;;;;0.90;0.90;;;;;;;14.53;100.00;98100.66;5075060;28;20222;-69
2022/07/01 01:56:47;;;;;;;0.77;0.63;;;;;;;14.46;100.00;98085.81;5074953;28;20302;-69
2022/07/01 01:59:13;;;;;;;2.10;0.80;;;;;;;14.36;100.00;98085.63;5074583;28;20714;-69
2022/07/01 02:01:39;;;;;;;0.70;0.70;;;;;;;14.34;100.00;98064.47;5074669;28;20553;-69
2022/07/01 02:04:06;;;;;;;1.47;0.90;;;;;;;14.34;100.00;98066.38;5074487;28;20297;-69
2022/07/01 02:06:32;;;;;;;1.23;0.90;;;;;;;14.35;100.00;98060.78;5074807;28;20290;-70
2022/07/01 02:08:59;;;;;;;1.67;0.80;;;;;;;14.39;100.00;98055.75;5074684;28;20322;-69
2022/07/01 02:11:25;;;;;;;0.97;0.90;;;;;;;14.28;100.00;98053.94;5074389;28;20293;-69
2022/07/01 02:13:52;;;;;;;3.50;1.00;;;;;;;14.24;100.00;98048.28;5074626;28;20299;-69
2022/07/01 02:16:18;;;;;;;1.53;1.00;;;;;;;14.24;100.00;98044.81;5074593;28;20290;-69
2022/07/01 02:18:44;;;;;;;2.27;1.30;;;;;;;14.33;100.00;98046.81;5074246;28;20243;-69
2022/07/01 02:21:11;;;;;;;2.03;1.17;;;;;;;14.33;100.00;98030.78;5074444;28;20206;-69
2022/07/01 02:23:38;;;;;;;0.83;0.80;;;;;;;14.28;100.00;98038.72;5075005;28;20216;-69
2022/07/01 02:26:04;;;;;;;1.07;1.07;;;;;;;14.34;100.00;98029.72;5074372;28;20230;-69
2022/07/01 02:28:31;;;;;;;1.70;0.90;;;;;;;14.26;100.00;98032.00;5074361;28;20322;-69
2022/07/01 02:30:57;;;;;;;1.27;1.10;;;;;;;14.29;100.00;98031.53;5074322;28;20214;-70
2022/07/01 02:33:24;;;;;;;1.03;0.80;;;;;;;14.23;100.00;98041.31;5073990;28;20217;-69
2022/07/01 02:35:50;;;;;;;1.90;1.10;;;;;;;14.18;100.00;98046.53;5074266;28;20286;-70
2022/07/01 02:38:17;;;;;;;1.77;1.03;;;;;;;14.23;100.00;98064.56;5074046;28;20248;-70
2022/07/01 02:40:43;;;;;;;2.00;0.90;;;;;;;14.28;100.00;98062.78;5074169;28;20221;-69
2022/07/01 02:43:10;;;;;;;2.07;1.00;;;;;;;14.26;100.00;98064.09;5074107;28;20259;-69
2022/07/01 02:45:37;;;;;;;4.87;1.10;;;;;;;14.33;100.00;98062.06;5073973;28;20236;-69
2022/07/01 02:48:03;;;;;;;2.57;0.80;;;;;;;14.24;100.00;98069.66;5073608;28;20592;-69
2022/07/01 02:50:30;;;;;;;1.20;1.00;;;;;;;14.25;100.00;98075.84;5073936;28;20287;-69
2022/07/01 02:52:56;;;;;;;0.77;0.77;;;;;;;14.24;100.00;98071.56;5073960;28;20207;-69
2022/07/01 02:55:23;;;;;;;1.20;0.77;;;;;;;14.19;100.00;98077.56;5073668;28;20202;-69
2022/07/01 02:57:51;;;;;;;1.13;0.90;;;;;;;14.29;100.00;98093.03;5073808;28;20212;-70
2022/07/01 03:00:19;;;;;;;1.20;1.00;;;;;;;14.31;100.00;98089.06;5073501;28;20214;-69
2022/07/01 03:02:45;;;;;;;1.07;0.80;;;;;;;14.34;100.00;98087.75;5073472;28;20206;-69
2022/07/01 03:05:12;;;;;;;1.00;0.87;;;;;;;14.21;100.00;98086.22;5073298;28;20645;-69
2022/07/01 03:07:39;;;;;;;1.23;0.97;;;;;;;14.25;100.00;98090.00;5073018;28;20203;-68
2022/07/01 03:10:07;;;;;;;3.73;1.23;;;;;;;14.24;100.00;98090.25;5073323;28;20326;-69
2022/07/01 03:12:35;;;;;;;0.97;0.97;;;;;;;14.13;100.00;98091.09;5073603;28;20207;-69
2022/07/01 03:15:13;;;;;;;1.10;0.80;;;;;;;14.23;100.00;98100.13;5073491;28;20552;-69
2022/07/01 03:17:42;;;;;;;0.80;0.80;;;;;;;14.32;100.00;98098.69;5073575;28;20202;-69
2022/07/01 03:20:10;;;;;;;0.93;0.93;;;;;;;14.33;100.00;98110.22;5073319;28;20211;-69
2022/07/01 03:22:38;;;;;;;0.90;0.90;;;;;;;14.29;100.00;98111.75;5073462;28;20306;-69
2022/07/01 03:25:06;;;;;;;1.00;0.70;;;;;;;14.45;100.00;98121.63;5073483;28;20252;-68
2022/07/01 03:27:34;;;;;;;2.03;1.00;;;;;;;14.40;100.00;98127.72;5073493;28;20207;-69
2022/07/01 03:30:00;;;;;;;2.30;1.00;;;;;;;14.44;100.00;98120.03;5073187;28;20597;-69
2022/07/01 03:32:27;;;;;;;1.30;1.10;;;;;;;14.36;100.00;98121.22;5073227;28;20301;-69
2022/07/01 03:34:54;;;;;;;1.50;0.90;;;;;;;14.29;100.00;98120.56;5073057;28;20235;-69
2022/07/01 03:37:22;;;;;;;1.90;0.90;;;;;;;14.37;100.00;98138.91;5072938;28;20697;-69
2022/07/01 03:39:49;;;;;;;0.73;0.73;;;;;;;14.29;100.00;98149.19;5073039;28;20319;-69
2022/07/01 03:42:16;;;;;;;0.93;0.93;;;;;;;14.33;100.00;98148.44;5073142;28;20231;-69
2022/07/01 03:44:44;;;;;;;1.20;1.03;;;;;;;14.36;100.00;98156.00;5073031;28;20276;-69
2022/07/01 03:47:10;;;;;;;2.17;0.80;;;;;;;14.37;100.00;98175.53;5072771;28;20211;-69
2022/07/01 03:49:37;;;;;;;1.00;0.83;;;;;;;14.42;100.00;98176.44;5073725;28;20278;-68
2022/07/01 03:52:04;;;;;;;1.60;1.00;;;;;;;14.34;100.00;98179.50;5072914;28;20302;-69
2022/07/01 03:54:30;;;;;;;1.83;0.87;;;;;;;14.43;100.00;98179.94;5073248;28;20246;-69
2022/07/01 03:57:01;;;;;;;1.17;0.80;;;;;;;14.47;100.00;98194.44;5073214;28;20235;-69
2022/07/01 03:59:29;;;;;;;0.90;0.90;;;;;;;14.35;100.00;98193.69;5072770;28;20322;-69
2022/07/01 04:01:57;;;;;;;2.20;0.90;;;;;;;14.34;100.00;98187.50;5072858;28;20218;-69
2022/07/01 04:04:25;;;;;;;1.20;0.90;;;;;;;14.33;100.00;98190.44;5072804;28;20298;-68
2022/07/01 04:06:53;;;;;;;1.17;1.10;;;;;;;14.36;100.00;98206.00;5072264;28;20329;-69
2022/07/01 04:09:20;;;;;;;2.97;1.20;;;;;;;14.33;100.00;98217.19;5072732;28;20314;-69
2022/07/01 04:11:49;;;;;;;2.17;1.20;;;;;;;14.27;100.00;98226.97;5073043;28;20205;-69
2022/07/01 04:14:16;;;;;;;1.40;1.30;;;;;;;14.21;100.00;98233.28;5072584;28;20581;-69
2022/07/01 04:16:44;;;;;;;3.30;1.60;;;;;;;14.16;100.00;98248.38;5072835;28;20215;-69
2022/07/01 04:19:11;;;;;;;1.80;1.17;;;;;;;14.18;100.00;98254.28;5074047;28;20326;-69
2022/07/01 04:24:24;;;;;;;2.77;1.50;;;;;;;14.10;100.00;98266.16;5076602;28;20174;-69
2022/07/01 04:26:51;;;;;;;1.53;1.43;;;;;;;14.10;100.00;98271.50;5076263;28;20326;-69
2022/07/01 04:29:18;;;;;;;2.17;1.40;;;;;;;14.12;100.00;98273.94;5076295;28;20228;-69
2022/07/01 04:31:45;;;;;;;1.40;1.30;;;;;;;14.07;100.00;98280.00;5076329;28;20212;-69
2022/07/01 04:34:11;;;;;;;1.67;1.30;;;;;;;14.07;100.00;98279.19;5076194;28;20303;-69
2022/07/01 04:36:38;;;;;;;2.60;1.40;;;;;;;14.14;100.00;98277.19;5076447;28;20203;-69
2022/07/01 04:39:05;;;;;;;3.27;1.50;;;;;;;14.19;100.00;98271.94;5076304;28;20319;-70
2022/07/01 04:44:17;;;;;;;1.70;1.50;;;;;;;14.04;100.00;98263.63;5075841;28;20651;-69
2022/07/01 04:46:44;;;;;;;2.90;1.40;;;;;;;14.01;100.00;98259.56;5075639;28;20321;-69
2022/07/01 04:49:10;;;;;;;1.57;1.30;;;;;;;14.11;100.00;98264.31;5075954;28;20317;-69
2022/07/01 04:51:37;;;;;;;3.37;1.40;;;;;;;14.11;100.00;98261.63;5076398;28;20207;-69
2022/07/01 04:54:04;;;;;;;2.17;1.60;;;;;;;13.99;100.00;98268.84;5076073;28;20216;-69
2022/07/01 04:56:33;;;;;;;1.93;1.60;;;;;;;13.93;100.00;98283.97;5076036;28;20315;-69
2022/07/01 04:59:00;;;;;;;2.00;1.30;;;;;;;14.00;100.00;98275.81;5075749;28;20413;-70
2022/07/01 05:01:28;;;;;;;2.47;1.60;;;;;;;14.00;100.00;98270.47;5075518;28;20239;-69
2022/07/01 05:03:55;;;;;;;2.83;1.40;;;;;;;13.96;100.00;98270.13;5075644;28;20203;-69
2022/07/01 05:06:21;;;;;;;1.60;1.50;;;;;;;13.92;100.00;98278.84;5075089;28;20690;-69
2022/07/01 05:08:47;;;;;;;1.83;1.67;;;;;;;13.95;100.00;98278.38;5075667;28;20239;-69
2022/07/01 05:11:14;;;;;;;2.43;1.70;;;;;;;14.01;100.00;98272.91;5075119;28;20681;-69
2022/07/01 05:13:41;;;;;;;1.50;1.40;;;;;;;13.87;100.00;98282.25;5075244;28;20297;-69
2022/07/01 05:16:08;;;;;;;2.00;1.53;;;;;;;13.85;100.00;98289.69;5075006;28;20211;-69
2022/07/01 05:24:04;;;;;;;3.63;1.97;;;;;;;13.87;100.00;98298.28;5074934;28;20538;-68
2022/07/01 05:26:30;;;;;;;4.37;2.20;;;;;;;13.86;100.00;98293.97;5074905;28;20230;-68
2022/07/01 05:28:57;;;;;;;3.07;1.83;;;;;;;13.75;100.00;98286.78;5075059;28;20236;-68
2022/07/01 05:31:23;;;;;;;2.23;2.03;;;;;;;13.79;100.00;98274.56;5074301;28;20207;-68
2022/07/01 05:33:49;;;;;;;2.50;2.33;;;;;;;13.73;100.00;98277.34;5074649;28;20762;-68
2022/07/01 05:36:16;;;;;;;2.43;2.20;;;;;;;13.84;100.00;98271.22;5074937;28;20204;-68
2022/07/01 05:38:44;;;;;;;4.00;2.30;;;;;;;13.79;100.00;98279.91;5074350;28;20226;-69
2022/07/01 05:41:11;;;;;;;3.40;2.60;;;;;;;13.82;100.00;98281.31;5074701;28;20299;-69
2022/07/01 05:43:37;;;;;;;6.10;2.53;;;;;;;13.92;100.00;98281.53;5074323;28;20631;-69
2022/07/01 05:46:04;;;;;;;3.77;2.03;;;;;;;13.88;100.00;98280.38;5074787;28;20231;-69
2022/07/01 05:48:30;;;;;;;2.80;2.20;;;;;;;13.87;100.00;98284.91;5074369;28;20237;-68
2022/07/01 05:50:57;;;;;;;3.23;2.60;;;;;;;13.96;100.00;98285.34;5074696;28;20206;-68
2022/07/01 05:53:23;;;;;;;6.27;3.00;;;;;;;13.94;100.00;98296.31;5074640;28;20206;-68
2022/07/01 05:55:50;;;;;;;4.73;2.37;;;;;;;14.00;100.00;98295.34;5074425;28;20259;-68
2022/07/01 05:58:16;;;;;;;4.37;2.70;;;;;;;13.97;100.00;98298.50;5074524;28;20324;-68
2022/07/01 06:00:44;;;;;;;3.03;2.33;;;;;;;13.95;100.00;98295.25;5074551;28;20293;-68
2022/07/01 06:03:15;;;;;;;3.00;2.00;;;;;;;13.99;100.00;98296.41;5074277;28;20207;-68
2022/07/01 06:05:42;;;;;;;3.80;2.70;;;;;;;14.01;100.00;98290.81;5074169;28;20207;-68
2022/07/01 06:08:09;;;;;;;4.87;3.40;;;;;;;13.95;100.00;98287.22;5073862;28;20645;-68
2022/07/01 06:10:36;;;;;;;3.77;3.37;;;;;;;14.05;100.00;98279.44;5074214;28;20217;-69
2022/07/01 06:13:03;;;;;;;3.83;2.47;;;;;;;14.01;100.00;98286.28;5074677;28;20221;-69
2022/07/01 06:15:30;;;;;;;3.63;2.43;;;;;;;13.93;100.00;98285.84;5073974;28;20691;-68
2022/07/01 06:17:57;;;;;;;3.13;2.00;;;;;;;13.95;100.00;98295.25;5073692;28;20740;-68
2022/07/01 06:20:24;;;;;;;3.97;2.30;;;;;;;13.92;100.00;98294.88;5074169;28;20223;-68
2022/07/01 06:22:50;;;;;;;2.80;2.10;;;;;;;13.90;100.00;98303.16;5074126;28;20298;-68
2022/07/01 06:25:17;;;;;;;2.77;2.33;;;;;;;13.89;100.00;98312.19;5073982;28;20298;-68
2022/07/01 06:27:45;;;;;;;3.90;2.50;;;;;;;13.95;100.00;98321.16;5073745;28;20229;-68
2022/07/01 06:30:14;;;;;;;3.50;2.63;;;;;;;14.01;100.00;98328.22;5074025;28;20307;-67
2022/07/01 06:32:41;;;;;;;3.73;2.47;;;;;;;14.06;100.00;98318.47;5073533;28;20733;-68
2022/07/01 06:35:08;;;;;;;2.60;2.40;;;;;;;14.07;100.00;98321.97;5073885;28;20215;-69
2022/07/01 06:37:35;;;;;;;2.40;2.20;;;;;;;14.02;100.00;98321.88;5073764;28;20207;-68
2022/07/01 06:40:07;;;;;;;2.93;2.23;;;;;;;14.05;100.00;98322.19;5073556;28;20225;-68
2022/07/01 06:42:34;;;;;;;2.20;2.00;;;;;;;14.01;100.00;98323.72;5072560;28;20673;-69
2022/07/01 06:45:00;;;;;;;2.40;2.20;;;;;;;13.94;100.00;98333.72;5073764;28;20294;-69
2022/07/01 06:47:27;;;;;;;2.90;2.30;;;;;;;14.04;100.00;98344.63;5073184;28;20230;-69
2022/07/01 06:49:53;;;;;;;2.27;2.10;;;;;;;14.06;100.00;98331.84;5073616;28;20254;-68
2022/07/01 06:52:20;;;;;;;5.23;2.33;;;;;;;14.00;100.00;98335.47;5073379;28;20653;-69
2022/07/01 06:54:46;;;;;;;2.53;2.33;;;;;;;14.09;100.00;98336.72;5073606;28;20291;-68
2022/07/01 06:57:13;;;;;;;3.73;2.23;;;;;;;14.03;100.00;98337.66;5073447;28;20203;-68
2022/07/01 06:59:40;;;;;;;2.60;2.27;;;;;;;14.07;100.00;98340.69;5073609;28;20225;-68
2022/07/01 07:02:07;;;;;;;3.70;2.50;;;;;;;14.09;100.00;98349.28;5073627;28;20207;-69
2022/07/01 07:04:34;;;;;;;4.17;2.40;;;;;;;14.13;100.00;98345.91;5073568;28;20352;-69
2022/07/01 07:07:01;;;;;;;3.67;2.17;;;;;;;14.02;100.00;98357.41;5072981;28;20307;-68
2022/07/01 07:09:28;;;;;;;3.00;2.20;;;;;;;14.23;100.00;98356.84;5073029;28;20710;-69
2022/07/01 07:11:54;;;;;;;2.40;2.20;;;;;;;14.22;100.00;98357.09;5073592;28;20567;-68
2022/07/01 07:14:21;;;;;;;2.20;2.00;;;;;;;14.30;100.00;98373.56;5073040;28;20744;-68
2022/07/01 07:16:51;;;;;;;2.00;1.90;;;;;;;14.19;100.00;98377.06;5073070;28;20314;-68
2022/07/01 07:19:18;;;;;;;2.13;1.93;;;;;;;14.32;100.00;98379.50;5073321;28;20241;-68
2022/07/01 07:21:46;;;;;;;3.80;2.57;;;;;;;14.43;100.00;98383.22;5073341;28;20264;-68
2022/07/01 07:24:13;;;;;;;1.97;1.83;;;;;;;14.25;100.00;98373.47;5074246;28;20226;-69
2022/07/01 07:26:40;;;;;;;2.57;2.30;;;;;;;14.30;100.00;98376.25;5072978;28;20326;-69
2022/07/01 07:29:08;;;;;;;3.50;2.10;;;;;;;14.34;100.00;98372.06;5073056;28;20576;-69
2022/07/01 07:31:35;;;;;;;2.60;2.40;;;;;;;14.31;100.00;98382.41;5073369;28;20211;-69
2022/07/01 07:34:04;;;;;;;1.63;1.53;;;;;;;14.25;100.00;98394.06;5072719;28;20548;-69
2022/07/01 07:36:31;;;;;;;1.90;1.70;;;;;;;14.03;100.00;98391.13;5072690;28;20222;-69
2022/07/01 07:38:58;;;;;;;1.73;1.60;;;;;;;14.08;100.00;98391.25;5073404;28;20239;-69
2022/07/01 07:41:25;;;;;;;3.17;2.30;;;;;;;14.10;100.00;98373.09;5073260;28;20246;-69
2022/07/01 07:43:51;;;;;;;1.87;1.77;;;;;;;14.16;100.00;98379.38;5073627;28;20215;-69
2022/07/01 07:46:18;;;;;;;1.70;1.60;;;;;;;14.23;100.00;98383.59;5073777;28;20328;-69
2022/07/01 07:48:44;;;;;;;1.90;1.80;;;;;;;14.17;100.00;98378.34;5073386;28;20236;-68
2022/07/01 07:51:14;;;;;;;3.70;2.00;;;;;;;14.23;100.00;98372.06;5072719;28;20753;-69
2022/07/01 07:53:40;;;;;;;3.20;1.90;;;;;;;14.27;100.00;98367.88;5074456;28;20208;-69
2022/07/01 07:56:07;;;;;;;3.43;1.80;;;;;;;14.25;100.00;98376.13;5076963;28;20290;-69
2022/07/01 07:58:33;;;;;;;2.27;2.13;;;;;;;14.30;100.00;98376.25;5076860;28;20694;-68
2022/07/01 08:00:59;;;;;;;2.60;2.10;;;;;;;14.32;100.00;98376.84;5076873;28;20299;-68
2022/07/01 08:03:26;;;;;;;2.40;2.10;;;;;;;14.28;100.00;98373.00;5076981;28;20304;-69
2022/07/01 08:05:52;;;;;;;2.57;2.27;;;;;;;14.32;100.00;98379.50;5076952;28;20224;-69
2022/07/01 08:08:19;;;;;;;2.33;2.00;;;;;;;14.23;100.00;98380.91;5076614;28;20234;-69
2022/07/01 08:10:45;;;;;;;2.40;1.70;;;;;;;14.34;100.00;98395.34;5077610;28;20292;-69
2022/07/01 08:13:11;;;;;;;2.17;1.97;;;;;;;14.31;100.00;98396.63;5076814;28;20235;-69
2022/07/01 08:15:38;;;;;;;2.23;2.03;;;;;;;14.32;100.00;98398.25;5076733;28;20296;-69
2022/07/01 08:18:04;;;;;;;3.13;2.20;;;;;;;14.34;100.00;98393.47;5076677;28;20252;-69
2022/07/01 08:20:31;;;;;;;4.00;2.13;;;;;;;14.27;100.00;98389.28;5076287;28;20280;-69
2022/07/01 08:22:57;;;;;;;1.80;1.70;;;;;;;14.24;100.00;98398.59;5076559;28;20303;-69
2022/07/01 08:25:24;;;;;;;2.40;2.20;;;;;;;14.27;100.00;98408.00;5076340;28;20204;-69
2022/07/01 08:27:50;;;;;;;3.70;2.60;;;;;;;14.31;100.00;98410.00;5076296;28;20583;-69
2022/07/01 08:30:16;;;;;;;5.83;3.33;;;;;;;14.41;100.00;98410.22;5076974;28;20203;-69
2022/07/01 08:32:43;;;;;;;3.90;2.40;;;;;;;14.43;100.00;98415.31;5076059;28;20207;-69
2022/07/01 08:35:09;;;;;;;3.93;2.60;;;;;;;14.59;100.00;98420.78;5075896;28;20683;-69
2022/07/01 08:37:36;;;;;;;4.90;2.70;;;;;;;14.55;100.00;98424.97;5076190;28;20210;-69
2022/07/01 08:40:02;;;;;;;3.33;2.77;;;;;;;14.63;100.00;98432.63;5076079;28;20307;-69
2022/07/01 08:42:29;;;;;;;3.63;2.10;;;;;;;14.50;100.00;98426.69;5075521;28;20212;-69
2022/07/01 08:44:55;;;;;;;2.77;2.50;;;;;;;14.55;100.00;98432.97;5075815;28;20209;-69
2022/07/01 08:47:22;;;;;;;2.17;1.93;;;;;;;14.41;100.00;98433.47;5076042;28;20273;-69
2022/07/01 08:49:48;;;;;;;3.27;2.40;;;;;;;14.48;100.00;98439.50;5075717;28;20635;-69
2022/07/01 08:52:15;;;;;;;3.30;2.20;;;;;;;14.38;100.00;98437.41;5074868;28;20208;-69
2022/07/01 08:54:41;;;;;;;4.57;2.60;;;;;;;14.34;100.00;98438.91;5075911;28;20211;-69
2022/07/01 08:57:08;;;;;;;3.47;2.87;;;;;;;14.35;100.00;98440.56;5076486;28;20284;-69
2022/07/01 08:59:35;;;;;;;3.27;2.83;;;;;;;14.41;100.00;98447.66;5075828;28;20271;-69
2022/07/01 09:02:04;;;;;;;2.70;2.50;;;;;;;14.45;100.00;98445.31;5075869;28;20201;-69
2022/07/01 09:04:31;;;;;;;3.80;2.83;;;;;;;14.40;100.00;98443.38;5075548;28;20593;-69
2022/07/01 09:07:11;;;;;;;5.23;2.97;;;;;;;14.44;100.00;98439.19;5075032;28;20227;-69
2022/07/01 09:09:39;;;;;;;5.00;3.23;;;;;;;14.45;100.00;98439.97;5076225;28;20234;-68
2022/07/01 09:12:07;;;;;;;3.37;2.90;;;;;;;14.43;100.00;98437.53;5075741;28;20201;-69
2022/07/01 09:14:35;;;;;;;4.90;2.50;;;;;;;14.43;100.00;98447.44;5075303;28;20663;-69
2022/07/01 09:17:07;;;;;;;3.07;1.83;;;;;;;14.30;100.00;98443.09;5075414;28;20214;-68
2022/07/01 09:19:36;;;;;;;2.73;2.00;;;;;;;14.28;100.00;98441.72;5074887;28;20278;-69
2022/07/01 09:22:04;;;;;;;2.13;1.93;;;;;;;14.35;100.00;98437.06;5075163;28;20573;-69
2022/07/01 09:24:34;;;;;;;3.27;2.60;;;;;;;14.18;100.00;98412.03;5075291;28;20294;-69
2022/07/01 09:27:06;;;;;;;4.00;2.60;;;;;;;14.19;100.00;98411.00;5075241;28;20268;-69
2022/07/01 09:29:35;;;;;;;4.80;2.80;;;;;;;14.22;100.00;98426.59;5075333;28;20256;-69
2022/07/01 09:32:04;;;;;;;2.63;2.20;;;;;;;14.19;100.00;98453.78;5075309;28;20203;-69
2022/07/01 09:34:36;;;;;;;4.73;2.33;;;;;;;14.19;100.00;98454.59;5075141;28;20305;-68
2022/07/01 09:37:02;;;;;;;2.20;1.60;;;;;;;14.13;100.00;98460.88;5075465;28;20200;-69
2022/07/01 09:39:29;;;;;;;1.50;1.40;;;;;;;13.97;100.00;98461.53;5074720;28;20322;-69
2022/07/01 09:41:57;;;;;;;4.57;1.97;;;;;;;14.03;100.00;98459.81;5075114;28;20207;-69
2022/07/01 09:44:23;;;;;;;2.27;1.60;;;;;;;13.93;100.00;98459.59;5075039;28;20211;-69
2022/07/01 09:46:55;;;;;;;2.53;1.60;;;;;;;13.85;100.00;98450.03;5074495;28;20699;-69
2022/07/01 09:49:22;;;;;;;2.37;1.80;;;;;;;13.96;100.00;98451.91;5074538;28;20230;-69
2022/07/01 09:51:52;;;;;;;3.37;1.90;;;;;;;13.97;100.00;98448.19;5074720;28;20206;-69
2022/07/01 09:54:20;;;;;;;2.10;1.90;;;;;;;14.03;100.00;98447.28;5074191;28;20208;-69
2022/07/01 09:56:47;;;;;;;1.90;1.70;;;;;;;14.05;100.00;98439.84;5074828;28;20293;-69
2022/07/01 09:59:13;;;;;;;2.00;1.80;;;;;;;14.08;100.00;98449.25;5074793;28;20227;-69
2022/07/01 10:01:40;;;;;;;1.93;1.70;;;;;;;14.13;100.00;98455.53;5074852;28;20208;-69
2022/07/01 10:04:09;;;;;;;2.13;1.53;;;;;;;14.14;100.00;98449.13;5074670;28;20206;-69
2022/07/01 10:06:49;;;;;;;1.60;1.50;;;;;;;14.22;100.00;98462.19;5074572;28;20218;-69
2022/07/01 10:09:44;;;;;;;2.47;1.50;;;;;;;14.35;100.00;98455.81;5074418;28;20284;-69
2022/07/01 10:12:49;;;;;;;3.47;1.93;;;;;;;14.46;100.00;98455.78;5074003;28;20192;-69
2022/07/01 10:15:18;;;;;;;1.70;1.37;;;;;;;14.68;100.00;98469.38;5061381;28;20207;-69
2022/07/01 10:17:47;;;;;;;1.53;1.30;;;;;;;14.65;100.00;98470.66;5073836;28;20690;-69
2022/07/01 10:20:24;;;;;;;1.37;1.30;;;;;;;14.74;100.00;98482.63;5073945;28;20226;-69
2022/07/01 10:23:00;;;;;;;2.90;1.60;;;;;;;15.01;100.00;98473.03;5074139;28;20193;-69
2022/07/01 10:25:35;;;;;;;2.40;1.73;;;;;;;14.97;100.00;98477.25;5073900;28;20188;-69
2022/07/01 10:28:26;;;;;;;2.77;1.30;;;;;;;15.03;100.00;98479.00;5073908;28;20327;-69
2022/07/01 10:30:56;;;;;;;2.40;1.20;;;;;;;15.04;100.00;98477.94;5073505;28;20287;-69
2022/07/01 10:33:44;;;;;;;2.73;1.40;;;;;;;15.29;100.00;98485.66;5074001;28;20272;-69
2022/07/01 10:36:31;;;;;;;1.27;1.17;;;;;;;15.45;100.00;98492.97;5073637;28;20647;-69
2022/07/01 10:39:06;;;;;;;1.23;1.13;;;;;;;15.38;100.00;98485.06;5073676;28;20228;-69
2022/07/01 10:41:39;;;;;;;2.30;1.30;;;;;;;15.50;97.32;98491.19;5073830;28;20214;-69
2022/07/01 10:44:13;;;;;;;1.43;0.97;;;;;;;15.50;92.18;98504.59;5073539;28;20188;-69
2022/07/01 10:46:43;;;;;;;2.53;1.27;;;;;;;15.72;96.67;98508.22;5073297;28;20224;-69
2022/07/01 10:49:12;;;;;;;1.43;1.10;;;;;;;15.72;95.87;98502.88;5073235;28;20305;-69
2022/07/01 10:51:54;;;;;;;3.73;1.80;;;;;;;15.97;100.00;98511.34;5073744;28;20547;-69
2022/07/01 10:54:35;;;;;;;1.77;1.30;;;;;;;16.07;96.01;98516.09;5073273;28;20236;-69
2022/07/01 10:57:33;;;;;;;2.00;1.10;;;;;;;16.30;100.00;98515.94;5073414;28;20212;-69
2022/07/01 10:59:59;;;;;;;1.57;1.10;;;;;;;16.16;100.00;98511.94;5068208;28;20305;-69
2022/07/01 11:02:46;;;;;;;2.40;1.30;;;;;;;16.09;99.24;98513.97;5073144;28;20299;-69
2022/07/01 11:05:14;;;;;;;2.30;1.30;;;;;;;16.21;91.66;98528.94;5073354;28;20193;-69
2022/07/01 11:07:46;;;;;;;1.40;1.30;;;;;;;15.97;93.69;98516.72;5073244;28;20314;-69
2022/07/01 11:10:16;;;;;;;2.37;1.50;;;;;;;16.18;100.00;98507.97;5073183;28;20246;-69
2022/07/01 11:12:46;;;;;;;2.67;1.23;;;;;;;16.11;96.61;98515.34;5072622;28;20300;-69
2022/07/01 11:15:12;;;;;;;3.37;1.20;;;;;;;16.07;94.24;98511.53;5073036;28;20307;-69
2022/07/01 11:17:50;;;;;;;2.40;1.20;;;;;;;15.90;85.11;98513.38;5072762;28;20205;-69
2022/07/01 11:20:17;;;;;;;1.40;1.30;;;;;;;15.83;99.01;98515.38;5072622;28;20291;-69
2022/07/01 11:22:43;;;;;;;3.30;1.33;;;;;;;15.80;92.96;98512.38;5072963;28;20295;-69
2022/07/01 11:25:12;;;;;;;4.33;1.20;;;;;;;15.56;95.16;98508.19;5072989;28;20208;-69
2022/07/01 11:27:39;;;;;;;1.43;1.27;;;;;;;15.47;100.00;98507.75;5072694;28;20647;-69
2022/07/01 11:30:12;;;;;;;1.10;1.00;;;;;;;15.66;90.28;98517.25;5072200;28;20315;-69
2022/07/01 11:32:55;;;;;;;1.60;1.30;;;;;;;15.75;92.49;98514.97;5073252;28;20257;-69
2022/07/01 11:41:09;;;;;;;1.57;1.10;;;;;;;16.28;88.42;98510.81;5072913;28;20176;-69
2022/07/01 11:43:40;;;;;;;1.77;1.00;;;;;;;16.65;91.76;98508.47;5072414;28;20295;-69
2022/07/01 11:46:08;;;;;;;1.33;1.23;;;;;;;16.88;89.96;98517.09;5072534;28;20546;-70
2022/07/01 11:48:44;;;;;;;2.33;1.13;;;;;;;17.18;84.25;98504.09;5072675;28;20228;-70